createdAt,value
2022-08-12T00:00:37.162Z,31.83
2022-08-12T00:03:10.196Z,31.78
2022-08-12T00:06:00.435Z,32.18
2022-08-12T00:08:16.171Z,31.97
2022-08-12T00:10:49.088Z,31.92
2022-08-12T00:13:22.146Z,32.34
2022-08-12T00:15:55.119Z,32.25
2022-08-12T00:18:28.200Z,32.40
2022-08-12T00:21:00.914Z,32.28
2022-08-12T00:23:34.158Z,32.40
2022-08-12T00:26:23.184Z,32.39
2022-08-12T00:28:40.208Z,32.34
2022-08-12T00:31:12.862Z,32.50
2022-08-12T00:33:52.453Z,32.21
2022-08-12T00:36:35.034Z,32.28
2022-08-12T00:38:52.126Z,32.02
2022-08-12T00:41:25.209Z,31.93
2022-08-12T00:43:58.254Z,31.82
2022-08-12T00:46:31.207Z,31.74
2022-08-12T00:49:04.248Z,31.68
2022-08-12T00:51:37.148Z,31.66
2022-08-12T00:54:10.221Z,31.39
2022-08-12T00:56:43.266Z,31.48
2022-08-12T00:59:16.168Z,31.23
2022-08-12T01:02:11.631Z,31.43
2022-08-12T01:04:22.233Z,31.06
2022-08-12T01:06:55.227Z,31.20
2022-08-12T01:09:28.241Z,31.20
2022-08-12T01:12:01.234Z,31.25
2022-08-12T01:14:34.190Z,31.11
2022-08-12T01:17:07.248Z,31.09
2022-08-12T01:19:40.172Z,31.17
2022-08-12T01:22:13.252Z,31.42
2022-08-12T01:24:46.245Z,31.18
2022-08-12T01:27:19.257Z,31.14
2022-08-12T01:29:52.232Z,31.29
2022-08-12T01:32:25.223Z,31.11
2022-08-12T01:34:58.296Z,31.22
2022-08-12T01:37:31.304Z,31.04
2022-08-12T01:40:36.793Z,31.09
2022-08-12T01:42:37.264Z,31.00
2022-08-12T01:45:10.275Z,30.90
2022-08-12T01:47:43.290Z,31.14
2022-08-12T01:50:16.275Z,31.08
2022-08-12T01:52:49.335Z,31.39
2022-08-12T01:55:22.305Z,31.38
2022-08-12T01:57:58.462Z,31.44
2022-08-12T02:00:36.017Z,31.18
2022-08-12T02:03:01.320Z,31.15
2022-08-12T02:05:34.315Z,31.26
2022-08-12T02:08:07.323Z,31.42
2022-08-12T02:10:51.284Z,31.51
2022-08-12T02:13:13.240Z,31.65
2022-08-12T02:15:46.274Z,31.60
2022-08-12T02:18:19.297Z,31.82
2022-08-12T02:20:52.995Z,31.79
2022-08-12T02:23:25.406Z,31.75
2022-08-12T02:25:58.342Z,31.82
2022-08-12T02:28:31.365Z,31.73
2022-08-12T02:31:04.349Z,31.74
2022-08-12T02:33:37.341Z,31.78
2022-08-12T02:36:10.334Z,31.65
2022-08-12T02:38:43.378Z,31.74
2022-08-12T02:41:16.357Z,31.77
2022-08-12T02:43:49.363Z,31.78
2022-08-12T02:46:22.362Z,31.84
2022-08-12T02:48:55.311Z,31.88
2022-08-12T02:51:28.394Z,31.87
2022-08-12T02:54:04.798Z,31.95
2022-08-12T02:56:34.364Z,32.05
2022-08-12T02:59:07.338Z,32.14
2022-08-12T03:01:42.556Z,32.23
2022-08-12T03:04:20.801Z,32.26
2022-08-12T03:06:46.359Z,32.54
2022-08-12T03:09:19.398Z,32.41
2022-08-12T03:11:52.367Z,32.35
2022-08-12T03:14:25.409Z,32.44
2022-08-12T03:16:58.385Z,32.52
2022-08-12T03:19:31.466Z,32.56
2022-08-12T03:22:09.262Z,32.62
2022-08-12T03:24:37.457Z,32.96
2022-08-12T03:27:10.443Z,32.69
2022-08-12T03:29:49.891Z,32.67
2022-08-12T03:32:45.623Z,32.68
2022-08-12T03:34:49.453Z,32.67
2022-08-12T03:37:22.447Z,32.76
2022-08-12T03:39:55.458Z,32.93
2022-08-12T03:42:28.662Z,32.98
2022-08-12T03:45:01.491Z,33.07
2022-08-12T03:47:34.477Z,33.25
2022-08-12T03:50:07.127Z,33.03
2022-08-12T03:52:40.624Z,32.97
2022-08-12T03:55:13.392Z,32.85
2022-08-12T03:57:46.445Z,32.72
2022-08-12T04:00:23.893Z,32.68
2022-08-12T04:02:52.445Z,32.71
2022-08-12T04:05:25.535Z,32.71
2022-08-12T04:07:58.644Z,32.63
2022-08-12T04:10:31.438Z,32.60
2022-08-12T04:13:04.425Z,32.60
2022-08-12T04:15:37.510Z,32.74
2022-08-12T04:18:10.569Z,32.71
2022-08-12T04:20:43.323Z,32.91
2022-08-12T04:23:16.755Z,32.85
2022-08-12T04:25:49.167Z,32.88
2022-08-12T04:28:22.454Z,33.60
2022-08-12T04:30:55.298Z,34.79
2022-08-12T04:33:28.322Z,35.10
2022-08-12T04:36:01.412Z,35.39
2022-08-12T04:38:34.356Z,35.21
2022-08-12T04:41:07.179Z,35.33
2022-08-12T04:43:53.755Z,35.31
2022-08-12T04:46:13.445Z,35.22
2022-08-12T04:48:46.449Z,35.36
2022-08-12T04:51:19.591Z,35.37
2022-08-12T04:54:06.558Z,35.30
2022-08-12T04:56:39.517Z,35.24
2022-08-12T04:59:12.491Z,34.98
2022-08-12T05:01:45.521Z,34.80
2022-08-12T05:04:18.502Z,34.20
2022-08-12T05:06:51.555Z,33.92
2022-08-12T05:09:24.586Z,33.84
2022-08-12T05:11:57.519Z,33.69
2022-08-12T05:14:33.340Z,33.57
2022-08-12T05:17:03.682Z,33.73
2022-08-12T05:19:36.556Z,33.45
2022-08-12T05:22:09.523Z,33.47
2022-08-12T05:24:42.522Z,33.33
2022-08-12T05:27:15.478Z,33.39
2022-08-12T05:30:05.453Z,33.22
2022-08-12T05:32:21.653Z,33.43
2022-08-12T05:34:54.622Z,33.23
2022-08-12T05:37:27.619Z,33.39
2022-08-12T05:40:00.615Z,33.55
2022-08-12T05:42:34.735Z,33.51
2022-08-12T05:45:06.646Z,33.70
2022-08-12T05:47:53.026Z,33.93
2022-08-12T05:50:13.476Z,33.88
2022-08-12T05:52:59.585Z,34.02
2022-08-12T05:55:32.555Z,34.58
2022-08-12T05:58:05.662Z,34.97
2022-08-12T06:00:38.302Z,35.13
2022-08-12T06:03:11.687Z,35.24
2022-08-12T06:05:55.203Z,35.23
2022-08-12T06:08:17.298Z,34.64
2022-08-12T06:10:50.764Z,34.60
2022-08-12T06:13:28.321Z,34.75
2022-08-12T06:15:56.322Z,34.84
2022-08-12T06:18:29.975Z,34.49
2022-08-12T06:21:02.705Z,34.55
2022-08-12T06:23:40.454Z,34.38
2022-08-12T06:26:08.404Z,34.35
2022-08-12T06:28:41.331Z,34.47
2022-08-12T06:31:25.690Z,34.66
2022-08-12T06:33:59.527Z,34.88
2022-08-12T06:36:21.076Z,34.87
2022-08-12T06:38:53.617Z,34.84
2022-08-12T06:41:26.733Z,34.66
2022-08-12T06:44:05.532Z,35.01
2022-08-12T06:46:32.460Z,35.25
2022-08-12T06:49:05.573Z,35.29
2022-08-12T06:51:38.669Z,35.23
2022-08-12T06:54:11.381Z,35.33
2022-08-12T06:57:03.476Z,35.59
2022-08-12T06:59:17.432Z,35.67
2022-08-12T07:01:51.627Z,35.75
2022-08-12T07:04:39.542Z,35.74
2022-08-12T07:06:56.566Z,36.20
2022-08-12T07:10:05.198Z,36.23
2022-08-12T07:12:02.566Z,36.44
2022-08-12T07:14:40.448Z,36.49
2022-08-12T07:17:08.400Z,36.54
2022-08-12T07:19:45.468Z,36.61
2022-08-12T07:22:14.490Z,36.67
2022-08-12T07:24:47.408Z,36.78
2022-08-12T07:27:20.679Z,36.74
2022-08-12T07:30:03.936Z,36.82
2022-08-12T07:32:30.241Z,36.84
2022-08-12T07:35:13.331Z,36.91
2022-08-12T07:37:46.476Z,37.03
2022-08-12T07:40:19.562Z,37.00
2022-08-12T07:42:52.508Z,37.02
2022-08-12T07:45:25.571Z,37.12
2022-08-12T07:47:58.528Z,37.17
2022-08-12T07:50:31.568Z,37.25
2022-08-12T07:53:04.783Z,37.17
2022-08-12T07:55:37.737Z,37.35
2022-08-12T07:58:10.493Z,37.28
2022-08-12T08:00:43.734Z,37.47
2022-08-12T08:03:16.487Z,37.44
2022-08-12T08:05:49.483Z,37.59
2022-08-12T08:08:26.500Z,37.66
2022-08-12T08:11:04.067Z,37.78
2022-08-12T08:13:32.704Z,37.73
2022-08-12T08:16:05.623Z,37.75
2022-08-12T08:18:38.642Z,37.80
2022-08-12T08:21:11.541Z,37.86
2022-08-12T08:23:46.409Z,37.86
2022-08-12T08:26:17.769Z,37.94
2022-08-12T08:28:50.539Z,37.94
2022-08-12T08:31:23.692Z,37.95
2022-08-12T08:34:04.369Z,37.98
2022-08-12T08:36:29.618Z,38.07
2022-08-12T08:39:02.542Z,38.14
2022-08-12T08:42:17.011Z,38.21
2022-08-12T08:44:08.524Z,38.35
2022-08-12T08:46:41.528Z,38.33
2022-08-12T08:49:14.692Z,38.39
2022-08-12T08:51:47.818Z,38.33
2022-08-12T08:54:20.850Z,38.43
2022-08-12T08:56:53.669Z,38.45
2022-08-12T09:02:16.725Z,38.41
2022-08-12T09:05:11.903Z,38.44
2022-08-12T09:07:51.806Z,38.54
2022-08-12T09:10:02.601Z,38.62
2022-08-12T09:12:28.651Z,38.59
2022-08-12T09:15:01.610Z,38.70
2022-08-12T09:17:48.496Z,38.62
2022-08-12T09:20:29.289Z,38.84
2022-08-12T09:22:54.783Z,38.83
2022-08-12T09:25:33.465Z,38.78
2022-08-12T09:28:05.162Z,38.94
2022-08-12T09:30:42.346Z,38.98
2022-08-12T09:33:18.840Z,38.92
2022-08-12T09:35:43.154Z,38.99
2022-08-12T09:38:28.871Z,39.03
2022-08-12T09:41:01.628Z,38.99
2022-08-12T09:43:19.185Z,39.00
2022-08-12T09:46:11.612Z,39.06
2022-08-12T09:48:24.635Z,39.17
2022-08-12T09:51:01.455Z,39.09
2022-08-12T09:53:38.433Z,39.17
2022-08-12T09:56:39.917Z,39.21
2022-08-12T09:58:59.001Z,39.13
2022-08-12T10:01:15.367Z,39.20
2022-08-12T10:04:03.681Z,39.30
2022-08-12T10:06:26.532Z,39.39
2022-08-12T10:08:52.620Z,39.35
2022-08-12T10:11:21.796Z,39.11
2022-08-12T10:13:54.812Z,39.00
2022-08-12T10:16:27.777Z,38.42
2022-08-12T10:19:00.686Z,38.38
2022-08-12T10:21:36.260Z,38.46
2022-08-12T10:24:06.844Z,38.54
2022-08-12T10:26:39.765Z,38.55
2022-08-12T10:30:01.898Z,38.59
2022-08-12T10:32:19.628Z,38.60
2022-08-12T10:34:29.094Z,38.62
2022-08-12T10:37:15.600Z,38.67
2022-08-12T10:40:01.835Z,38.71
2022-08-12T10:42:07.775Z,38.68
2022-08-12T10:44:40.770Z,38.63
2022-08-12T10:47:26.442Z,38.66
2022-08-12T10:50:02.463Z,38.67
2022-08-12T10:52:47.165Z,38.67
2022-08-12T10:54:52.880Z,38.63
2022-08-12T10:58:12.681Z,38.66
2022-08-12T11:00:35.057Z,38.64
2022-08-12T11:04:20.369Z,38.65
2022-08-12T11:07:02.934Z,38.68
2022-08-12T11:08:39.013Z,38.76
2022-08-12T11:10:11.081Z,38.83
2022-08-12T11:12:59.718Z,38.88
2022-08-12T11:15:20.905Z,38.88
2022-08-12T11:17:52.951Z,38.99
2022-08-12T11:20:24.306Z,39.09
2022-08-12T11:22:57.913Z,39.25
2022-08-12T11:25:56.867Z,39.37
2022-08-12T11:28:01.829Z,39.57
2022-08-12T11:30:34.974Z,39.70
2022-08-12T11:33:11.794Z,39.65
2022-08-12T11:35:40.756Z,39.81
2022-08-12T11:38:13.730Z,40.08
2022-08-12T11:40:47.023Z,39.95
2022-08-12T11:43:20.538Z,39.92
2022-08-12T11:45:56.731Z,40.08
2022-08-12T11:48:27.134Z,40.12
2022-08-12T11:50:58.781Z,40.08
2022-08-12T11:53:58.556Z,40.10
2022-08-12T11:56:04.802Z,39.94
2022-08-12T12:01:18.383Z,40.05
2022-08-12T12:03:45.855Z,40.20
2022-08-12T12:06:17.455Z,40.14
2022-08-12T12:08:53.709Z,40.23
2022-08-12T12:11:25.898Z,40.28
2022-08-12T12:14:07.576Z,40.19
2022-08-12T12:16:33.597Z,40.16
2022-08-12T12:19:04.911Z,40.26
2022-08-12T12:21:48.651Z,40.21
2022-08-12T12:24:10.823Z,40.28
2022-08-12T12:26:43.972Z,40.28
2022-08-12T12:30:19.025Z,40.26
2022-08-12T12:32:09.968Z,40.26
2022-08-12T12:34:30.539Z,40.28
2022-08-12T12:36:56.027Z,40.32
2022-08-12T12:39:29.199Z,40.34
2022-08-12T12:42:49.778Z,40.24
2022-08-12T12:44:41.852Z,40.26
2022-08-12T12:47:26.090Z,40.26
2022-08-12T12:49:40.872Z,40.20
2022-08-12T12:52:19.727Z,40.22
2022-08-12T12:54:47.012Z,40.19
2022-08-12T12:57:35.915Z,40.11
2022-08-12T12:59:55.954Z,40.09
2022-08-12T13:02:31.820Z,40.07
2022-08-12T13:04:58.904Z,40.13
2022-08-12T13:07:49.534Z,40.11
2022-08-12T13:10:04.972Z,40.23
2022-08-12T13:12:37.940Z,40.14
2022-08-12T13:15:43.872Z,40.14
2022-08-12T13:18:03.344Z,40.25
2022-08-12T13:20:38.273Z,40.19
2022-08-12T13:23:04.054Z,40.18
2022-08-12T13:25:37.099Z,40.24
2022-08-12T13:28:09.910Z,40.13
2022-08-12T13:30:42.944Z,40.13
2022-08-12T13:33:17.784Z,40.15
2022-08-12T13:36:05.817Z,40.17
2022-08-12T13:38:26.572Z,40.12
2022-08-12T13:40:56.883Z,40.12
2022-08-12T13:43:39.301Z,40.12
2022-08-12T13:46:03.064Z,40.15
2022-08-12T13:48:35.956Z,40.14
2022-08-12T13:51:08.953Z,40.10
2022-08-12T13:53:57.851Z,40.08
2022-08-12T13:56:14.971Z,40.05
2022-08-12T13:58:47.963Z,40.14
2022-08-12T14:01:21.088Z,40.11
2022-08-12T14:03:54.085Z,40.21
2022-08-12T14:06:30.414Z,40.29
2022-08-12T14:09:15.740Z,40.32
2022-08-12T14:11:35.157Z,40.33
2022-08-12T14:14:12.847Z,40.42
2022-08-12T14:16:49.202Z,40.60
2022-08-12T14:19:18.371Z,40.54
2022-08-12T14:21:59.778Z,40.51
2022-08-12T14:24:20.176Z,40.44
2022-08-12T14:26:53.022Z,40.51
2022-08-12T14:29:38.151Z,40.61
2022-08-12T14:31:59.039Z,40.53
2022-08-12T14:34:32.015Z,40.70
2022-08-12T14:37:07.371Z,40.66
2022-08-12T14:39:39.186Z,40.68
2022-08-12T14:42:11.036Z,40.65
2022-08-12T14:44:59.801Z,40.70
2022-08-12T14:47:17.261Z,40.65
2022-08-12T14:50:37.143Z,40.63
2022-08-12T14:53:11.407Z,40.70
2022-08-12T14:57:35.508Z,40.68
2022-08-12T15:00:02.217Z,40.60
2022-08-12T15:02:35.162Z,40.56
2022-08-12T15:05:08.260Z,40.50
2022-08-12T15:07:51.258Z,40.42
2022-08-12T15:10:14.432Z,40.37
2022-08-12T15:12:47.381Z,40.31
2022-08-12T15:15:20.508Z,40.33
2022-08-12T15:17:59.551Z,40.44
2022-08-12T15:20:32.648Z,40.12
2022-08-12T15:22:59.257Z,39.64
2022-08-12T15:25:39.947Z,39.90
2022-08-12T15:28:10.766Z,39.80
2022-08-12T15:30:38.110Z,40.14
2022-08-12T15:33:12.902Z,40.28
2022-08-12T15:35:51.996Z,40.42
2022-08-12T15:38:19.460Z,40.44
2022-08-12T15:40:50.104Z,40.51
2022-08-12T15:43:35.489Z,40.62
2022-08-12T15:45:56.113Z,40.61
2022-08-12T15:48:30.551Z,40.57
2022-08-12T15:51:02.172Z,40.40
2022-08-12T15:53:35.141Z,40.43
2022-08-12T15:56:08.186Z,40.50
2022-08-12T15:58:41.215Z,40.29
2022-08-12T16:01:14.351Z,40.47
2022-08-12T16:03:59.964Z,40.48
2022-08-12T16:06:36.194Z,40.31
2022-08-12T16:08:53.290Z,40.27
2022-08-12T16:11:26.288Z,40.38
2022-08-12T16:14:00.058Z,40.35
2022-08-12T16:16:32.319Z,40.33
2022-08-12T16:19:19.179Z,40.30
2022-08-12T16:21:52.456Z,40.17
2022-08-12T16:24:11.221Z,40.27
2022-08-12T16:26:45.154Z,40.32
2022-08-12T16:29:17.301Z,40.26
2022-08-12T16:31:50.270Z,40.38
2022-08-12T16:34:25.899Z,40.39
2022-08-12T16:36:56.326Z,40.51
2022-08-12T16:39:29.330Z,40.49
2022-08-12T16:42:02.375Z,40.42
2022-08-12T16:44:35.414Z,40.59
2022-08-12T16:47:08.268Z,40.50
2022-08-12T16:49:41.323Z,40.61
2022-08-12T16:52:14.478Z,40.55
2022-08-12T16:54:47.369Z,40.46
2022-08-12T16:57:20.223Z,40.31
2022-08-12T16:59:54.867Z,40.13
2022-08-12T17:02:33.829Z,40.05
2022-08-12T17:04:59.498Z,40.05
2022-08-12T17:07:36.540Z,39.97
2022-08-12T17:10:05.275Z,40.14
2022-08-12T17:12:38.423Z,40.28
2022-08-12T17:15:21.657Z,40.35
2022-08-12T17:17:44.250Z,40.59
2022-08-12T17:20:36.312Z,40.63
2022-08-12T17:22:50.452Z,40.64
2022-08-12T17:25:37.389Z,40.68
2022-08-12T17:28:10.275Z,40.65
2022-08-12T17:33:24.814Z,40.66
2022-08-12T17:35:50.391Z,40.63
2022-08-12T17:38:23.316Z,40.62
2022-08-12T17:40:56.793Z,40.67
2022-08-12T17:43:55.630Z,40.81
2022-08-12T17:46:02.908Z,40.79
2022-08-12T17:48:38.848Z,40.87
2022-08-12T17:51:08.411Z,40.79
2022-08-12T17:54:05.752Z,40.80
2022-08-12T17:56:14.600Z,40.78
2022-08-12T17:58:51.337Z,40.76
2022-08-12T18:01:20.706Z,40.66
2022-08-12T18:04:04.940Z,40.82
2022-08-12T18:06:28.036Z,40.73
2022-08-12T18:08:59.430Z,40.77
2022-08-12T18:12:05.035Z,40.81
2022-08-12T18:14:05.642Z,40.99
2022-08-12T18:16:38.720Z,41.20
2022-08-12T18:19:11.449Z,41.10
2022-08-12T18:22:02.682Z,40.88
2022-08-12T18:24:22.470Z,41.00
2022-08-12T18:26:52.433Z,41.17
2022-08-12T18:29:36.604Z,41.00
2022-08-12T18:31:59.933Z,41.10
2022-08-12T18:34:31.502Z,41.08
2022-08-12T18:37:11.030Z,41.14
2022-08-12T18:39:37.570Z,41.07
2022-08-12T18:42:10.358Z,41.13
2022-08-12T18:44:43.429Z,40.87
2022-08-12T18:47:16.408Z,40.77
2022-08-12T18:49:49.760Z,40.71
2022-08-12T18:52:22.400Z,40.76
2022-08-12T18:54:59.313Z,40.66
2022-08-12T18:58:06.090Z,40.51
2022-08-12T19:00:06.698Z,40.57
2022-08-12T19:02:36.354Z,40.62
2022-08-12T19:05:09.643Z,40.61
2022-08-12T19:07:49.435Z,40.55
2022-08-12T19:10:13.504Z,40.82
2022-08-12T19:12:57.117Z,40.51
2022-08-12T19:15:19.655Z,40.74
2022-08-12T19:18:00.502Z,40.52
2022-08-12T19:20:25.517Z,40.75
2022-08-12T19:23:02.289Z,40.56
2022-08-12T19:26:01.133Z,40.68
2022-08-12T19:28:04.705Z,40.54
2022-08-12T19:30:37.660Z,40.41
2022-08-12T19:33:10.596Z,40.35
2022-08-12T19:36:14.246Z,40.52
2022-08-12T19:38:17.783Z,40.33
2022-08-12T19:40:49.494Z,40.25
2022-08-12T19:43:22.560Z,40.64
2022-08-12T19:45:56.870Z,40.29
2022-08-12T19:48:30.828Z,40.40
2022-08-12T19:51:08.876Z,40.44
2022-08-12T19:53:56.786Z,40.10
2022-08-12T19:56:07.465Z,40.11
2022-08-12T19:58:40.644Z,39.85
2022-08-12T20:01:13.757Z,39.98
2022-08-12T20:03:46.594Z,40.17
2022-08-12T20:06:21.870Z,39.65
2022-08-12T20:08:56.407Z,39.75
2022-08-12T20:12:13.148Z,39.32
2022-08-12T20:14:01.333Z,39.57
2022-08-12T20:16:51.926Z,39.18
2022-08-12T20:19:07.380Z,39.04
2022-08-12T20:21:40.312Z,39.00
2022-08-12T20:24:10.652Z,39.03
2022-08-12T20:26:43.883Z,39.24
2022-08-12T20:29:16.817Z,38.84
2022-08-12T20:31:51.932Z,38.85
2022-08-12T20:34:22.839Z,39.29
2022-08-12T20:36:57.231Z,39.04
2022-08-12T20:39:52.267Z,38.70
2022-08-12T20:42:07.212Z,38.81
2022-08-12T20:44:40.194Z,38.43
2022-08-12T20:47:18.289Z,38.89
2022-08-12T20:49:43.956Z,38.40
2022-08-12T20:52:18.306Z,38.50
2022-08-12T20:54:49.915Z,38.86
2022-08-12T20:57:22.835Z,38.58
2022-08-12T20:59:55.870Z,38.85
2022-08-12T21:02:30.296Z,37.25
2022-08-12T21:05:01.911Z,36.79
2022-08-12T21:07:34.614Z,37.96
2022-08-12T21:10:07.833Z,37.53
2022-08-12T21:12:40.868Z,38.25
2022-08-12T21:15:24.281Z,37.65
2022-08-12T21:18:00.545Z,38.28
2022-08-12T21:20:22.710Z,38.06
2022-08-12T21:22:52.887Z,38.14
2022-08-12T21:25:25.892Z,37.98
2022-08-12T21:28:12.784Z,36.87
2022-08-12T21:31:10.410Z,37.10
2022-08-12T21:33:18.944Z,35.94
2022-08-12T21:35:51.883Z,35.89
2022-08-12T21:38:24.999Z,35.21
2022-08-12T21:40:57.974Z,35.34
2022-08-12T21:43:43.686Z,35.24
2022-08-12T21:46:03.983Z,35.15
2022-08-12T21:48:36.973Z,34.72
2022-08-12T21:51:23.433Z,34.46
2022-08-12T21:54:06.185Z,34.15
2022-08-12T21:56:34.003Z,34.08
2022-08-12T21:58:48.943Z,33.87
2022-08-12T22:01:22.902Z,33.72
2022-08-12T22:04:03.648Z,33.58
2022-08-12T22:06:42.802Z,34.97
2022-08-12T22:09:01.077Z,34.71
2022-08-12T22:11:41.732Z,35.34
2022-08-12T22:14:08.795Z,34.62
2022-08-12T22:16:46.802Z,34.36
2022-08-12T22:19:12.936Z,34.44
2022-08-12T22:21:52.161Z,35.20
2022-08-12T22:24:25.766Z,35.36
2022-08-12T22:26:51.785Z,35.35
2022-08-12T22:29:26.687Z,34.27
2022-08-12T22:31:58.061Z,34.71
2022-08-12T22:34:33.478Z,35.32
2022-08-12T22:37:04.111Z,35.03
2022-08-12T22:39:37.090Z,34.03
2022-08-12T22:42:09.992Z,33.65
2022-08-12T22:44:54.446Z,33.64
2022-08-12T22:47:45.673Z,33.42
2022-08-12T22:50:00.465Z,34.22
2022-08-12T22:52:30.731Z,34.52
2022-08-12T22:55:05.332Z,34.38
2022-08-12T22:57:49.024Z,33.92
2022-08-12T23:00:24.760Z,33.04
2022-08-12T23:02:42.521Z,32.88
2022-08-12T23:05:15.086Z,32.70
2022-08-12T23:07:58.860Z,33.05
2022-08-12T23:10:21.045Z,32.70
2022-08-12T23:12:54.156Z,32.42
2022-08-12T23:15:27.088Z,32.95
2022-08-12T23:18:00.110Z,32.53
2022-08-12T23:20:33.085Z,32.58
2022-08-12T23:23:08.767Z,32.59
2022-08-12T23:25:54.428Z,32.57
2022-08-12T23:28:29.998Z,32.52
2022-08-12T23:30:45.064Z,32.38
2022-08-12T23:33:59.536Z,32.24
2022-08-12T23:35:59.270Z,32.13
2022-08-12T23:38:31.611Z,32.16
2022-08-12T23:40:57.134Z,31.92
2022-08-12T23:43:38.339Z,31.99
2022-08-12T23:46:03.199Z,31.91
2022-08-12T23:48:36.117Z,31.66
2022-08-12T23:51:23.541Z,31.57
2022-08-12T23:53:42.209Z,31.40
2022-08-12T23:56:15.173Z,31.38
2022-08-12T23:58:48.182Z,31.40
